createdAt,value
2018-12-13T00:01:49.410Z,101959.63
2018-12-13T00:04:22.058Z,101961.44
2018-12-13T00:06:58.475Z,101956.10
2018-12-13T00:09:29.735Z,101950.37
2018-12-13T00:11:59.714Z,101955.98
2018-12-13T00:14:35.492Z,101940.38
2018-12-13T00:17:08.706Z,101947.03
2018-12-13T00:19:49.436Z,101938.02
2018-12-13T00:22:28.062Z,101936.00
2018-12-13T00:25:02.013Z,101935.00
2018-12-13T00:27:40.656Z,101933.47
2018-12-13T00:30:20.978Z,101925.39
2018-12-13T00:32:52.044Z,101929.64
2018-12-13T00:35:21.896Z,101930.44
2018-12-13T00:38:00.299Z,101931.94
2018-12-13T00:40:38.331Z,101924.70
2018-12-13T00:43:12.325Z,101925.56
2018-12-13T00:45:46.242Z,101921.78
2018-12-13T00:48:18.489Z,101918.30
2018-12-13T00:50:57.251Z,101928.12
2018-12-13T00:53:28.500Z,101922.89
2018-12-13T00:55:59.774Z,101917.81
2018-12-13T00:58:31.708Z,101921.62
2018-12-13T01:01:03.795Z,101912.39
2018-12-13T01:03:35.073Z,101915.92
2018-12-13T01:06:06.934Z,101907.95
2018-12-13T01:08:44.857Z,101906.45
2018-12-13T01:11:22.691Z,101893.91
2018-12-13T01:13:54.970Z,101884.94
2018-12-13T01:16:28.903Z,101889.26
2018-12-13T01:19:06.830Z,101900.28
2018-12-13T01:21:45.447Z,101899.14
2018-12-13T01:24:23.539Z,101898.66
2018-12-13T01:27:01.464Z,101894.61
2018-12-13T01:29:39.423Z,101897.70
2018-12-13T01:32:13.604Z,101899.03
2018-12-13T01:34:46.641Z,101890.34
2018-12-13T01:37:27.068Z,101889.03
2018-12-13T01:40:05.155Z,101896.55
2018-12-13T01:42:43.055Z,101883.77
2018-12-13T01:45:14.064Z,101886.52
2018-12-13T01:48:05.093Z,101886.59
2018-12-13T01:50:43.655Z,101873.77
2018-12-13T01:53:17.727Z,101875.30
2018-12-13T01:55:49.688Z,101875.14
2018-12-13T01:58:27.551Z,101875.14
2018-12-13T02:00:58.605Z,101877.89
2018-12-13T02:03:37.147Z,101872.83
2018-12-13T02:06:10.533Z,101874.09
2018-12-13T02:08:51.255Z,101869.88
2018-12-13T02:11:24.266Z,101871.39
2018-12-13T02:14:07.269Z,101871.56
2018-12-13T02:16:38.991Z,101862.98
2018-12-13T02:19:18.030Z,101860.91
2018-12-13T02:21:51.104Z,101862.89
2018-12-13T02:24:30.781Z,101862.42
2018-12-13T02:27:09.991Z,101857.12
2018-12-13T02:29:42.338Z,101857.00
2018-12-13T02:32:21.713Z,101860.92
2018-12-13T02:34:52.852Z,101855.48
2018-12-13T02:37:26.914Z,101851.59
2018-12-13T02:40:06.490Z,101853.84
2018-12-13T02:42:44.401Z,101851.86
2018-12-13T02:45:18.335Z,101851.30
2018-12-13T02:47:51.490Z,101850.72
2018-12-13T02:50:22.178Z,101847.33
2018-12-13T02:53:01.595Z,101848.51
2018-12-13T02:55:33.063Z,101849.40
2018-12-13T02:58:03.071Z,101854.48
2018-12-13T03:00:34.001Z,101846.00
2018-12-13T03:05:58.900Z,101845.53
2018-12-13T03:08:29.966Z,101846.50
2018-12-13T03:11:10.526Z,101840.47
2018-12-13T03:13:55.888Z,101830.98
2018-12-13T03:16:31.229Z,101828.94
2018-12-13T03:19:02.735Z,101821.78
2018-12-13T03:21:32.462Z,101830.46
2018-12-13T03:24:11.319Z,101818.16
2018-12-13T03:26:46.151Z,101812.67
2018-12-13T03:29:24.073Z,101813.81
2018-12-13T03:32:02.863Z,101807.17
2018-12-13T03:34:34.058Z,101808.02
2018-12-13T03:37:05.090Z,101800.05
2018-12-13T03:39:37.564Z,101799.33
2018-12-13T03:42:09.711Z,101798.20
2018-12-13T03:44:42.374Z,101796.20
2018-12-13T03:47:14.313Z,101794.38
2018-12-13T03:49:45.715Z,101786.94
2018-12-13T03:52:15.425Z,101797.04
2018-12-13T03:54:48.774Z,101787.61
2018-12-13T03:57:21.203Z,101788.52
2018-12-13T03:59:51.023Z,101787.05
2018-12-13T04:02:39.936Z,101787.17
2018-12-13T04:05:10.976Z,101790.56
2018-12-13T04:07:44.798Z,101792.40
2018-12-13T04:10:23.736Z,101788.77
2018-12-13T04:12:57.615Z,101784.10
2018-12-13T04:15:29.642Z,101784.36
2018-12-13T04:18:07.481Z,101776.20
2018-12-13T04:20:38.758Z,101780.23
2018-12-13T04:23:26.160Z,101777.97
2018-12-13T04:25:57.404Z,101786.19
2018-12-13T04:28:28.534Z,101777.30
2018-12-13T04:31:08.094Z,101775.17
2018-12-13T04:33:45.928Z,101769.33
2018-12-13T04:36:17.078Z,101770.61
2018-12-13T04:38:48.122Z,101767.35
2018-12-13T04:41:19.463Z,101764.91
2018-12-13T04:43:49.294Z,101782.86
2018-12-13T04:46:21.224Z,101769.73
2018-12-13T04:51:47.286Z,101771.46
2018-12-13T04:54:17.289Z,101764.96
2018-12-13T04:56:48.342Z,101763.23
2018-12-13T04:59:19.289Z,101762.45
2018-12-13T05:01:59.294Z,101754.45
2018-12-13T05:04:30.358Z,101757.48
2018-12-13T05:07:09.073Z,101761.08
2018-12-13T05:09:48.720Z,101757.64
2018-12-13T05:12:29.292Z,101754.38
2018-12-13T05:15:04.723Z,101758.78
2018-12-13T05:17:37.962Z,101757.89
2018-12-13T05:20:19.258Z,101755.75
2018-12-13T05:22:58.526Z,101753.41
2018-12-13T05:25:30.800Z,101753.11
2018-12-13T05:28:09.616Z,101753.75
2018-12-13T05:30:42.722Z,101750.88
2018-12-13T05:33:16.662Z,101749.27
2018-12-13T05:35:53.251Z,101749.29
2018-12-13T05:38:33.757Z,101746.89
2018-12-13T05:41:12.567Z,101748.09
2018-12-13T05:43:45.901Z,101754.15
2018-12-13T05:49:29.726Z,101754.58
2018-12-13T05:52:01.682Z,101765.81
2018-12-13T05:54:33.620Z,101764.69
2018-12-13T05:57:13.404Z,101764.59
2018-12-13T05:59:44.732Z,101761.73
2018-12-13T06:02:18.591Z,101751.89
2018-12-13T06:04:52.019Z,101752.48
2018-12-13T06:07:37.428Z,101752.86
2018-12-13T06:10:07.018Z,101752.76
2018-12-13T06:12:46.578Z,101751.70
2018-12-13T06:15:16.590Z,101749.47
2018-12-13T06:17:56.232Z,101755.37
2018-12-13T06:20:27.000Z,101752.39
2018-12-13T06:23:00.821Z,101750.27
2018-12-13T06:25:36.897Z,101752.30
2018-12-13T06:28:16.988Z,101753.53
2018-12-13T06:30:55.993Z,101755.16
2018-12-13T06:33:36.800Z,101757.88
2018-12-13T06:36:10.926Z,101758.00
2018-12-13T06:38:52.229Z,101757.92
2018-12-13T06:41:32.242Z,101755.29
2018-12-13T06:44:02.913Z,101753.95
2018-12-13T06:46:34.460Z,101752.17
2018-12-13T06:49:04.423Z,101755.75
2018-12-13T06:51:43.378Z,101749.83
2018-12-13T06:54:21.408Z,101755.37
2018-12-13T06:56:53.510Z,101760.59
2018-12-13T06:59:24.936Z,101752.27
2018-12-13T07:02:03.093Z,101756.70
2018-12-13T07:04:34.172Z,101750.91
2018-12-13T07:07:12.843Z,101758.94
2018-12-13T07:09:45.060Z,101759.25
2018-12-13T07:12:17.231Z,101759.44
2018-12-13T07:14:48.282Z,101760.18
2018-12-13T07:17:26.030Z,101762.23
2018-12-13T07:19:58.320Z,101760.44
2018-12-13T07:22:30.300Z,101776.77
2018-12-13T07:25:00.278Z,101772.61
2018-12-13T07:27:39.966Z,101773.13
2018-12-13T07:30:18.203Z,101778.00
2018-12-13T07:32:56.895Z,101788.91
2018-12-13T07:35:27.914Z,101783.20
2018-12-13T07:38:06.908Z,101790.61
2018-12-13T07:40:37.809Z,101792.23
2018-12-13T07:46:02.394Z,101791.51
2018-12-13T07:48:40.201Z,101790.64
2018-12-13T07:51:17.868Z,101782.97
2018-12-13T07:53:56.801Z,101788.02
2018-12-13T07:56:29.238Z,101788.66
2018-12-13T07:59:08.592Z,101792.27
2018-12-13T08:01:42.539Z,101794.83
2018-12-13T08:04:22.070Z,101795.52
2018-12-13T08:06:53.261Z,101790.39
2018-12-13T08:12:20.796Z,101794.75
2018-12-13T08:14:52.052Z,101796.39
2018-12-13T08:17:32.687Z,101793.97
2018-12-13T08:20:06.789Z,101794.52
2018-12-13T08:22:52.210Z,101807.23
2018-12-13T08:25:27.543Z,101803.59
2018-12-13T08:28:07.508Z,101810.20
2018-12-13T08:30:46.493Z,101801.88
2018-12-13T08:33:24.306Z,101802.94
2018-12-13T08:35:55.662Z,101791.77
2018-12-13T08:38:27.417Z,101800.65
2018-12-13T08:41:08.117Z,101802.47
2018-12-13T08:43:46.070Z,101804.39
2018-12-13T08:46:17.123Z,101803.82
2018-12-13T08:48:51.229Z,101806.23
2018-12-13T08:51:30.779Z,101806.77
2018-12-13T08:54:02.145Z,101799.67
2018-12-13T08:56:36.483Z,101798.88
2018-12-13T08:59:09.447Z,101797.33
2018-12-13T09:01:47.934Z,101791.59
2018-12-13T09:04:25.877Z,101795.11
2018-12-13T09:06:57.506Z,101797.66
2018-12-13T09:09:27.425Z,101794.97
2018-12-13T09:11:58.916Z,101802.53
2018-12-13T09:14:30.832Z,101806.18
2018-12-13T09:17:00.954Z,101798.78
2018-12-13T09:19:33.063Z,101804.75
2018-12-13T09:22:11.507Z,101795.73
2018-12-13T09:24:52.330Z,101796.28
2018-12-13T09:27:30.553Z,101792.04
2018-12-13T09:30:02.816Z,101792.50
2018-12-13T09:32:41.656Z,101787.36
2018-12-13T09:35:12.962Z,101799.69
2018-12-13T09:37:47.558Z,101792.85
2018-12-13T09:40:24.752Z,101792.75
2018-12-13T09:42:56.100Z,101790.31
2018-12-13T09:45:29.019Z,101791.12
2018-12-13T09:48:07.650Z,101796.92
2018-12-13T09:50:41.484Z,101786.21
2018-12-13T09:53:19.653Z,101783.06
2018-12-13T09:55:51.760Z,101784.52
2018-12-13T09:58:30.434Z,101786.59
2018-12-13T10:01:01.580Z,101782.26
2018-12-13T10:03:31.498Z,101782.43
2018-12-13T10:06:05.343Z,101778.69
2018-12-13T10:08:46.274Z,101773.34
2018-12-13T10:11:14.879Z,101783.03
2018-12-13T10:13:52.905Z,101774.00
2018-12-13T10:16:23.940Z,101772.06
2018-12-13T10:18:57.989Z,101770.37
2018-12-13T10:21:36.809Z,101761.34
2018-12-13T10:24:14.935Z,101757.47
2018-12-13T10:26:52.862Z,101760.01
2018-12-13T10:29:30.617Z,101753.51
2018-12-13T10:32:00.339Z,101754.70
2018-12-13T10:34:32.456Z,101756.80
2018-12-13T10:37:10.862Z,101748.56
2018-12-13T10:39:48.920Z,101747.66
2018-12-13T10:42:26.947Z,101751.97
2018-12-13T10:44:58.263Z,101751.15
2018-12-13T10:47:37.941Z,101744.44
2018-12-13T10:50:18.041Z,101741.67
2018-12-13T10:52:52.026Z,101730.55
2018-12-13T10:55:25.124Z,101741.78
2018-12-13T10:58:03.515Z,101736.10
2018-12-13T11:00:47.816Z,101727.28
2018-12-13T11:03:33.606Z,101733.16
2018-12-13T11:06:05.127Z,101735.02
2018-12-13T11:08:43.689Z,101730.12
2018-12-13T11:11:21.993Z,101723.28
2018-12-13T11:13:59.839Z,101727.34
2018-12-13T11:16:31.077Z,101719.09
2018-12-13T11:19:09.625Z,101715.62
2018-12-13T11:21:41.914Z,101717.17
2018-12-13T11:24:21.491Z,101713.32
2018-12-13T11:26:52.925Z,101714.46
2018-12-13T11:29:38.366Z,101715.14
2018-12-13T11:32:16.353Z,101705.65
2018-12-13T11:34:49.554Z,101710.47
2018-12-13T11:37:22.763Z,101713.09
2018-12-13T11:40:02.451Z,101721.98
2018-12-13T11:42:34.846Z,101713.97
2018-12-13T11:45:10.299Z,101708.44
2018-12-13T11:47:43.607Z,101702.77
2018-12-13T11:50:22.700Z,101693.42
2018-12-13T11:53:01.833Z,101697.28
2018-12-13T11:55:33.830Z,101691.63
2018-12-13T11:58:05.298Z,101696.27
2018-12-13T12:00:45.873Z,101696.27
2018-12-13T12:03:24.046Z,101691.44
2018-12-13T12:05:57.346Z,101688.77
2018-12-13T12:08:36.055Z,101688.95
2018-12-13T12:11:06.479Z,101678.95
2018-12-13T12:13:51.947Z,101683.02
2018-12-13T12:16:22.603Z,101667.85
2018-12-13T12:18:54.368Z,101674.97
2018-12-13T12:21:33.065Z,101678.78
2018-12-13T12:24:12.289Z,101673.77
2018-12-13T12:26:44.490Z,101672.36
2018-12-13T12:29:25.015Z,101672.19
2018-12-13T12:31:57.199Z,101672.95
2018-12-13T12:34:31.964Z,101672.88
2018-12-13T12:37:13.182Z,101659.20
2018-12-13T12:39:53.236Z,101650.61
2018-12-13T12:42:29.537Z,101649.94
2018-12-13T12:45:02.087Z,101653.61
2018-12-13T12:50:34.586Z,101650.15
2018-12-13T12:53:13.233Z,101643.07
2018-12-13T12:55:47.383Z,101642.47
2018-12-13T12:58:25.260Z,101643.53
2018-12-13T13:01:04.258Z,101652.28
2018-12-13T13:03:33.774Z,101646.58
2018-12-13T13:06:07.626Z,101644.59
2018-12-13T13:08:46.305Z,101642.39
2018-12-13T13:11:26.015Z,101639.44
2018-12-13T13:14:00.130Z,101628.59
2018-12-13T13:16:31.240Z,101631.17
2018-12-13T13:19:10.198Z,101631.42
2018-12-13T13:21:41.551Z,101623.23
2018-12-13T13:24:12.633Z,101626.91
2018-12-13T13:26:42.713Z,101627.89
2018-12-13T13:29:15.839Z,101628.23
2018-12-13T13:31:50.284Z,101626.58
2018-12-13T13:34:21.818Z,101623.58
2018-12-13T13:37:02.000Z,101616.38
2018-12-13T13:39:40.511Z,101619.89
2018-12-13T13:42:19.583Z,101617.73
2018-12-13T13:44:55.528Z,101614.81
2018-12-13T13:47:34.529Z,101615.91
2018-12-13T13:50:14.717Z,101611.23
2018-12-13T13:52:46.067Z,101610.56
2018-12-13T13:55:18.909Z,101615.73
2018-12-13T13:57:58.615Z,101618.58
2018-12-13T14:00:30.987Z,101618.24
2018-12-13T14:03:11.569Z,101616.23
2018-12-13T14:05:46.384Z,101617.27
2018-12-13T14:08:18.703Z,101616.56
2018-12-13T14:10:57.562Z,101618.38
2018-12-13T14:13:29.807Z,101619.25
2018-12-13T14:16:00.628Z,101624.27
2018-12-13T14:18:31.622Z,101629.24
2018-12-13T14:21:05.300Z,101621.03
2018-12-13T14:23:44.940Z,101623.92
2018-12-13T14:26:18.185Z,101632.59
2018-12-13T14:28:53.828Z,101631.55
2018-12-13T14:31:35.303Z,101628.72
2018-12-13T14:37:08.925Z,101628.27
2018-12-13T14:39:48.863Z,101635.58
2018-12-13T14:44:54.773Z,101633.37
2018-12-13T14:47:25.802Z,101633.84
2018-12-13T14:49:56.962Z,101625.84
2018-12-13T14:52:29.178Z,101631.55
2018-12-13T14:55:00.228Z,101628.55
2018-12-13T14:57:34.267Z,101634.48
2018-12-13T15:00:12.789Z,101636.03
2018-12-13T15:02:50.802Z,101637.56
2018-12-13T15:05:23.142Z,101643.11
2018-12-13T15:08:01.848Z,101635.92
2018-12-13T15:10:35.906Z,101633.09
2018-12-13T15:13:09.002Z,101637.76
2018-12-13T15:15:43.894Z,101639.41
2018-12-13T15:18:16.203Z,101644.44
2018-12-13T15:20:55.153Z,101643.52
2018-12-13T15:23:34.227Z,101639.85
2018-12-13T15:26:06.426Z,101642.83
2018-12-13T15:28:38.075Z,101638.86
2018-12-13T15:31:12.809Z,101638.59
2018-12-13T15:33:43.854Z,101640.33
2018-12-13T15:36:17.881Z,101637.09
2018-12-13T15:38:56.742Z,101646.77
2018-12-13T15:41:27.856Z,101655.83
2018-12-13T15:44:05.645Z,101658.13
2018-12-13T15:46:36.878Z,101654.73
2018-12-13T15:49:16.388Z,101649.82
2018-12-13T15:51:46.436Z,101647.20
2018-12-13T15:54:17.407Z,101654.63
2018-12-13T15:56:51.160Z,101644.38
2018-12-13T15:59:29.032Z,101642.41
2018-12-13T16:04:54.801Z,101645.97
2018-12-13T16:07:33.788Z,101653.92
2018-12-13T16:10:12.422Z,101650.34
2018-12-13T16:12:43.862Z,101648.03
2018-12-13T16:15:13.605Z,101642.17
2018-12-13T16:17:53.063Z,101644.06
2018-12-13T16:20:44.024Z,101642.91
2018-12-13T16:23:18.866Z,101638.44
2018-12-13T16:25:51.077Z,101647.95
2018-12-13T16:28:22.230Z,101648.78
2018-12-13T16:31:02.834Z,101654.50
2018-12-13T16:33:36.085Z,101647.75
2018-12-13T16:36:07.813Z,101653.13
2018-12-13T16:38:39.868Z,101645.78
2018-12-13T16:41:20.431Z,101652.36
2018-12-13T16:43:51.848Z,101651.98
2018-12-13T16:46:24.157Z,101655.17
2018-12-13T16:49:03.902Z,101651.08
2018-12-13T16:51:43.013Z,101650.39
2018-12-13T16:54:16.342Z,101656.84
2018-12-13T16:56:47.109Z,101648.67
2018-12-13T16:59:27.814Z,101647.20
2018-12-13T17:02:07.742Z,101643.68
2018-12-13T17:04:41.626Z,101642.69
2018-12-13T17:07:19.942Z,101640.51
2018-12-13T17:09:57.746Z,101647.72
2018-12-13T17:12:35.482Z,101640.44
2018-12-13T17:15:08.830Z,101636.67
2018-12-13T17:17:47.284Z,101635.64
2018-12-13T17:20:27.885Z,101639.04
2018-12-13T17:26:02.820Z,101651.30
2018-12-13T17:28:42.250Z,101641.05
2018-12-13T17:31:14.875Z,101643.11
2018-12-13T17:33:54.657Z,101642.92
2018-12-13T17:36:32.810Z,101635.91
2018-12-13T17:39:11.896Z,101643.16
2018-12-13T17:41:50.850Z,101644.48
2018-12-13T17:44:30.786Z,101642.11
2018-12-13T17:47:10.643Z,101641.89
2018-12-13T17:49:43.743Z,101637.77
2018-12-13T17:52:23.492Z,101641.42
2018-12-13T17:54:56.888Z,101635.52
2018-12-13T17:57:29.934Z,101641.56
2018-12-13T18:00:05.131Z,101638.52
2018-12-13T18:02:44.749Z,101642.05
2018-12-13T18:05:16.091Z,101644.61
2018-12-13T18:07:50.724Z,101643.95
2018-12-13T18:10:38.305Z,101649.50
2018-12-13T18:13:17.385Z,101654.54
2018-12-13T18:15:49.466Z,101650.52
2018-12-13T18:21:13.889Z,101654.86
2018-12-13T18:23:56.980Z,101642.24
2018-12-13T18:26:32.311Z,101648.03
2018-12-13T18:29:04.472Z,101646.25
2018-12-13T18:31:42.609Z,101643.19
2018-12-13T18:34:27.093Z,101644.31
2018-12-13T18:37:12.724Z,101639.34
2018-12-13T18:39:43.797Z,101639.55
2018-12-13T18:42:23.234Z,101641.91
2018-12-13T18:44:59.149Z,101644.44
2018-12-13T18:47:38.253Z,101646.13
2018-12-13T18:50:23.965Z,101644.67
2018-12-13T18:53:08.740Z,101645.05
2018-12-13T18:55:42.127Z,101646.87
2018-12-13T18:58:21.797Z,101645.05
2018-12-13T19:00:56.060Z,101649.56
2018-12-13T19:03:35.023Z,101651.20
2018-12-13T19:06:08.485Z,101656.59
2018-12-13T19:08:46.957Z,101653.92
2018-12-13T19:11:26.185Z,101657.42
2018-12-13T19:14:06.829Z,101662.61
2018-12-13T19:19:38.712Z,101664.09
2018-12-13T19:22:16.509Z,101657.14
2018-12-13T19:24:48.729Z,101661.08
2018-12-13T19:27:27.441Z,101664.36
2018-12-13T19:30:02.358Z,101665.59
2018-12-13T19:32:40.244Z,101676.27
2018-12-13T19:35:12.632Z,101675.78
2018-12-13T19:37:50.738Z,101681.25
2018-12-13T19:40:25.535Z,101680.45
2018-12-13T19:42:57.663Z,101684.17
2018-12-13T19:45:33.351Z,101682.25
2018-12-13T19:48:05.540Z,101693.45
2018-12-13T19:50:38.819Z,101691.84
2018-12-13T19:53:12.114Z,101689.97
2018-12-13T19:55:44.829Z,101694.53
2018-12-13T19:58:24.247Z,101690.84
2018-12-13T20:00:56.731Z,101689.00
2018-12-13T20:03:42.244Z,101690.16
2018-12-13T20:06:16.020Z,101684.74
2018-12-13T20:09:02.218Z,101692.82
2018-12-13T20:11:37.435Z,101686.45
2018-12-13T20:14:09.554Z,101689.80
2018-12-13T20:19:42.092Z,101701.27
2018-12-13T20:22:14.508Z,101702.48
2018-12-13T20:24:53.288Z,101705.25
2018-12-13T20:27:24.742Z,101710.32
2018-12-13T20:29:55.638Z,101709.63
2018-12-13T20:32:35.366Z,101709.55
2018-12-13T20:35:07.779Z,101714.93
2018-12-13T20:40:40.926Z,101717.72
2018-12-13T20:43:19.018Z,101715.66
2018-12-13T20:45:50.222Z,101720.27
2018-12-13T20:48:21.119Z,101721.78
2018-12-13T20:51:00.546Z,101732.59
2018-12-13T20:53:35.576Z,101730.89
2018-12-13T20:56:07.941Z,101729.13
2018-12-13T20:58:47.505Z,101731.16
2018-12-13T21:04:20.737Z,101741.87
2018-12-13T21:06:58.674Z,101744.58
2018-12-13T21:09:37.655Z,101742.04
2018-12-13T21:12:16.737Z,101734.91
2018-12-13T21:14:52.418Z,101728.02
2018-12-13T21:17:24.683Z,101727.48
2018-12-13T21:20:04.304Z,101732.92
2018-12-13T21:22:43.270Z,101737.81
2018-12-13T21:25:19.096Z,101736.45
2018-12-13T21:27:59.107Z,101738.29
2018-12-13T21:30:39.246Z,101730.67
2018-12-13T21:33:11.581Z,101727.13
2018-12-13T21:35:42.475Z,101728.19
2018-12-13T21:41:15.767Z,101723.09
2018-12-13T21:43:54.770Z,101725.52
2018-12-13T21:52:19.520Z,101724.95
2018-12-13T21:54:51.833Z,101720.59
2018-12-13T21:57:31.531Z,101723.09
2018-12-13T22:00:10.298Z,101716.58
2018-12-13T22:02:48.546Z,101720.84
2018-12-13T22:05:19.873Z,101722.11
2018-12-13T22:07:58.719Z,101726.39
2018-12-13T22:10:32.664Z,101726.84
2018-12-13T22:13:04.863Z,101726.31
2018-12-13T22:15:36.508Z,101728.23
2018-12-13T22:18:17.204Z,101730.08
2018-12-13T22:20:55.389Z,101736.02
2018-12-13T22:23:34.235Z,101725.64
2018-12-13T22:26:05.481Z,101730.52
2018-12-13T22:28:40.320Z,101725.94
2018-12-13T22:31:19.290Z,101726.23
2018-12-13T22:33:58.099Z,101723.03
2018-12-13T22:36:31.507Z,101721.63
2018-12-13T22:39:13.904Z,101731.45
2018-12-13T22:41:53.212Z,101730.28
2018-12-13T22:44:26.228Z,101724.47
2018-12-13T22:46:58.328Z,101718.20
2018-12-13T22:49:37.915Z,101733.43
2018-12-13T22:52:13.078Z,101725.30
2018-12-13T22:55:01.069Z,101722.30
2018-12-13T22:57:40.025Z,101720.30
2018-12-13T23:00:12.156Z,101720.30
2018-12-13T23:02:53.705Z,101721.13
2018-12-13T23:05:32.728Z,101729.52
2018-12-13T23:08:03.648Z,101729.05
2018-12-13T23:10:34.595Z,101720.06
2018-12-13T23:13:06.993Z,101721.26
2018-12-13T23:15:39.204Z,101725.15
2018-12-13T23:18:18.877Z,101722.97
2018-12-13T23:20:49.423Z,101722.59
2018-12-13T23:23:27.225Z,101726.34
2018-12-13T23:26:01.352Z,101722.75
2018-12-13T23:28:32.699Z,101723.02
2018-12-13T23:31:18.135Z,101723.97
2018-12-13T23:33:49.919Z,101715.54
2018-12-13T23:36:21.775Z,101719.43
2018-12-13T23:39:01.391Z,101719.45
2018-12-13T23:41:40.612Z,101722.58
2018-12-13T23:44:21.154Z,101723.87
2018-12-13T23:46:55.560Z,101725.48
2018-12-13T23:49:25.538Z,101720.13
2018-12-13T23:51:57.619Z,101713.83
2018-12-13T23:54:31.552Z,101708.91
2018-12-13T23:57:02.588Z,101711.20
2018-12-13T23:59:33.644Z,101710.48
